createdAt,value
2023-02-22T00:01:07.619Z,1.73
2023-02-22T00:03:34.999Z,2.10
2023-02-22T00:06:05.452Z,2.50
2023-02-22T00:08:37.032Z,2.10
2023-02-22T00:11:10.368Z,2.22
2023-02-22T00:13:38.827Z,2.08
2023-02-22T00:16:06.917Z,2.28
2023-02-22T00:18:34.189Z,2.13
2023-02-22T00:21:05.439Z,2.50
2023-02-22T00:23:32.751Z,2.20
2023-02-22T00:26:01.296Z,2.33
2023-02-22T00:28:30.686Z,2.30
2023-02-22T00:30:59.955Z,2.42
2023-02-22T00:33:27.477Z,2.85
2023-02-22T00:35:55.044Z,2.50
2023-02-22T00:38:22.338Z,2.78
2023-02-22T00:40:49.658Z,2.50
2023-02-22T00:43:17.082Z,2.75
2023-02-22T00:45:44.351Z,2.58
2023-02-22T00:48:15.347Z,2.67
2023-02-22T00:50:42.634Z,2.85
2023-02-22T00:53:11.385Z,2.83
2023-02-22T00:55:38.943Z,2.45
2023-02-22T00:58:07.476Z,3.20
2023-02-22T01:00:41.741Z,3.10
2023-02-22T01:03:19.767Z,2.45
2023-02-22T01:05:47.249Z,2.75
2023-02-22T01:08:17.042Z,2.78
2023-02-22T01:10:44.884Z,2.83
2023-02-22T01:13:15.051Z,2.88
2023-02-22T01:15:45.031Z,3.22
2023-02-22T01:18:13.146Z,2.45
2023-02-22T01:20:40.677Z,2.70
2023-02-22T01:23:08.293Z,2.40
2023-02-22T01:25:36.436Z,2.30
2023-02-22T01:28:05.896Z,2.40
2023-02-22T01:30:35.659Z,2.50
2023-02-22T01:33:06.642Z,2.50
2023-02-22T01:35:40.990Z,2.85
2023-02-22T01:38:10.133Z,2.40
2023-02-22T01:40:41.990Z,2.58
2023-02-22T01:43:29.950Z,2.58
2023-02-22T01:46:21.277Z,2.60
2023-02-22T01:49:02.025Z,2.50
2023-02-22T01:51:43.070Z,2.15
2023-02-22T01:54:47.045Z,2.00
2023-02-22T01:57:33.093Z,2.50
2023-02-22T02:00:11.072Z,2.40
2023-02-22T02:02:54.712Z,2.40
2023-02-22T02:05:24.261Z,2.53
2023-02-22T02:07:52.038Z,2.17
2023-02-22T02:10:21.503Z,2.28
2023-02-22T02:12:53.265Z,2.25
2023-02-22T02:15:25.344Z,2.60
2023-02-22T02:17:54.929Z,2.22
2023-02-22T02:20:35.212Z,2.10
2023-02-22T02:23:52.845Z,2.30
2023-02-22T02:26:32.311Z,2.30
2023-02-22T02:29:29.677Z,2.30
2023-02-22T02:32:56.065Z,2.80
2023-02-22T02:35:54.596Z,2.40
2023-02-22T02:39:05.182Z,2.40
2023-02-22T02:41:42.849Z,2.40
2023-02-22T02:44:26.565Z,2.47
2023-02-22T02:47:09.076Z,2.50
2023-02-22T02:50:03.841Z,2.67
2023-02-22T02:52:34.311Z,2.33
2023-02-22T02:55:05.204Z,2.70
2023-02-22T02:57:32.561Z,2.03
2023-02-22T02:59:59.906Z,2.55
2023-02-22T03:03:22.117Z,2.17
2023-02-22T03:06:16.883Z,2.80
2023-02-22T03:09:26.570Z,2.40
2023-02-22T03:12:30.380Z,2.55
2023-02-22T03:15:32.498Z,2.35
2023-02-22T03:18:30.234Z,2.60
2023-02-22T03:21:19.766Z,2.47
2023-02-22T03:24:08.153Z,2.75
2023-02-22T03:26:55.422Z,2.38
2023-02-22T03:29:26.311Z,3.00
2023-02-22T03:32:01.610Z,2.63
2023-02-22T03:34:58.530Z,2.67
2023-02-22T03:37:37.707Z,2.55
2023-02-22T03:40:15.028Z,3.25
2023-02-22T03:42:51.683Z,2.80
2023-02-22T03:45:24.434Z,2.55
2023-02-22T03:48:03.184Z,2.80
2023-02-22T03:50:36.577Z,2.85
2023-02-22T03:53:05.472Z,2.70
2023-02-22T03:55:33.404Z,2.40
2023-02-22T03:58:09.726Z,3.17
2023-02-22T04:00:44.542Z,2.80
2023-02-22T04:03:11.880Z,2.55
2023-02-22T04:05:39.269Z,2.40
2023-02-22T04:08:06.659Z,2.83
2023-02-22T04:10:33.939Z,2.55
2023-02-22T04:13:01.249Z,2.67
2023-02-22T04:15:28.437Z,3.17
2023-02-22T04:18:00.126Z,2.42
2023-02-22T04:20:27.266Z,2.70
2023-02-22T04:22:55.702Z,2.65
2023-02-22T04:25:24.273Z,3.00
2023-02-22T04:27:52.202Z,2.55
2023-02-22T04:30:20.551Z,2.80
2023-02-22T04:32:48.135Z,3.03
2023-02-22T04:35:15.991Z,2.60
2023-02-22T04:37:43.127Z,2.80
2023-02-22T04:40:11.632Z,2.65
2023-02-22T04:42:42.201Z,3.15
2023-02-22T04:45:10.016Z,3.15
2023-02-22T04:47:38.229Z,2.83
2023-02-22T04:50:07.861Z,3.10
2023-02-22T04:52:38.195Z,2.47
2023-02-22T04:55:06.847Z,2.60
2023-02-22T04:57:34.022Z,2.97
2023-02-22T05:00:01.106Z,2.60
2023-02-22T05:02:28.595Z,2.70
2023-02-22T05:04:55.767Z,2.83
2023-02-22T05:07:23.007Z,2.38
2023-02-22T05:09:50.204Z,3.20
2023-02-22T05:12:17.405Z,3.08
2023-02-22T05:14:47.740Z,2.85
2023-02-22T05:17:15.050Z,3.10
2023-02-22T05:19:42.195Z,2.90
2023-02-22T05:22:09.411Z,2.90
2023-02-22T05:24:36.569Z,3.75
2023-02-22T05:27:03.757Z,3.55
2023-02-22T05:29:33.855Z,3.55
2023-02-22T05:32:02.711Z,2.83
2023-02-22T05:34:30.867Z,2.80
2023-02-22T05:36:58.042Z,2.55
2023-02-22T05:39:25.665Z,3.58
2023-02-22T05:41:52.888Z,3.10
2023-02-22T05:44:20.228Z,2.90
2023-02-22T05:46:47.436Z,3.47
2023-02-22T05:49:14.753Z,3.50
2023-02-22T05:51:42.407Z,2.72
2023-02-22T05:54:09.671Z,3.45
2023-02-22T05:56:36.967Z,3.28
2023-02-22T05:59:04.100Z,3.10
2023-02-22T06:01:31.180Z,3.45
2023-02-22T06:04:01.551Z,3.47
2023-02-22T06:06:28.626Z,3.40
2023-02-22T06:08:55.985Z,2.65
2023-02-22T06:11:23.244Z,3.03
2023-02-22T06:13:52.818Z,3.10
2023-02-22T06:16:22.298Z,2.90
2023-02-22T06:18:50.277Z,3.20
2023-02-22T06:21:18.246Z,3.58
2023-02-22T06:23:45.641Z,3.95
2023-02-22T06:26:19.632Z,3.75
2023-02-22T06:28:47.229Z,3.58
2023-02-22T06:31:14.760Z,2.92
2023-02-22T06:33:45.087Z,3.40
2023-02-22T06:36:12.530Z,3.80
2023-02-22T06:38:39.666Z,3.47
2023-02-22T06:41:08.510Z,3.25
2023-02-22T06:43:35.600Z,3.92
2023-02-22T06:46:03.211Z,3.42
2023-02-22T06:48:30.399Z,3.42
2023-02-22T06:51:00.886Z,4.03
2023-02-22T06:53:28.200Z,3.22
2023-02-22T06:55:55.605Z,3.40
2023-02-22T06:58:23.166Z,3.40
2023-02-22T07:00:50.596Z,3.97
2023-02-22T07:03:17.844Z,3.58
2023-02-22T07:05:45.530Z,3.40
2023-02-22T07:08:13.433Z,3.60
2023-02-22T07:10:41.404Z,3.60
2023-02-22T07:13:11.787Z,3.30
2023-02-22T07:15:38.928Z,3.78
2023-02-22T07:18:07.409Z,3.78
2023-02-22T07:20:34.890Z,3.80
2023-02-22T07:23:02.165Z,3.90
2023-02-22T07:25:29.323Z,4.15
2023-02-22T07:27:56.475Z,4.00
2023-02-22T07:30:34.263Z,3.53
2023-02-22T07:33:09.097Z,4.00
2023-02-22T07:35:46.913Z,3.67
2023-02-22T07:38:19.495Z,3.65
2023-02-22T07:40:46.841Z,4.20
2023-02-22T07:43:20.727Z,3.40
2023-02-22T07:45:51.079Z,3.25
2023-02-22T07:48:20.917Z,3.35
2023-02-22T07:50:48.710Z,3.38
2023-02-22T07:53:21.300Z,3.38
2023-02-22T07:55:51.109Z,3.33
2023-02-22T07:58:26.129Z,3.45
2023-02-22T08:00:56.602Z,2.70
2023-02-22T08:03:26.291Z,3.42
2023-02-22T08:05:56.790Z,3.42
2023-02-22T08:08:27.158Z,3.30
2023-02-22T08:11:00.972Z,3.78
2023-02-22T08:13:28.287Z,4.65
2023-02-22T08:15:56.262Z,5.03
2023-02-22T08:18:26.876Z,5.72
2023-02-22T08:20:55.063Z,4.57
2023-02-22T08:23:25.539Z,4.82
2023-02-22T08:25:53.291Z,4.53
2023-02-22T08:28:23.810Z,4.50
2023-02-22T08:30:51.723Z,4.88
2023-02-22T08:33:19.946Z,5.13
2023-02-22T08:35:50.019Z,4.53
2023-02-22T08:38:30.060Z,5.18
2023-02-22T08:40:57.517Z,4.97
2023-02-22T08:43:25.025Z,4.28
2023-02-22T08:45:52.986Z,4.18
2023-02-22T08:48:21.333Z,4.60
2023-02-22T08:50:48.550Z,4.65
2023-02-22T08:53:17.104Z,4.60
2023-02-22T08:55:45.481Z,4.53
2023-02-22T08:58:13.263Z,4.55
2023-02-22T09:00:41.836Z,4.70
2023-02-22T09:03:14.019Z,4.63
2023-02-22T09:05:43.181Z,4.57
2023-02-22T09:08:10.960Z,5.03
2023-02-22T09:10:38.445Z,5.10
2023-02-22T09:13:06.388Z,3.90
2023-02-22T09:15:36.670Z,4.15
2023-02-22T09:18:08.459Z,4.15
2023-02-22T09:20:36.293Z,4.00
2023-02-22T09:23:06.001Z,4.15
2023-02-22T09:25:36.426Z,4.78
2023-02-22T09:28:04.185Z,3.63
2023-02-22T09:30:35.150Z,4.15
2023-02-22T09:33:11.668Z,3.95
2023-02-22T09:35:42.593Z,3.80
2023-02-22T09:38:11.697Z,3.85
2023-02-22T09:40:47.685Z,4.05
2023-02-22T09:46:29.618Z,4.20
2023-02-22T09:48:59.722Z,3.58
2023-02-22T09:51:58.745Z,3.78
2023-02-22T09:54:43.441Z,3.70
2023-02-22T09:57:43.161Z,3.80
2023-02-22T10:00:23.977Z,4.22
2023-02-22T10:03:23.476Z,4.05
2023-02-22T10:06:00.832Z,4.50
2023-02-22T10:08:36.467Z,3.88
2023-02-22T10:13:54.716Z,3.55
2023-02-22T10:16:40.390Z,4.28
2023-02-22T10:19:13.290Z,4.17
2023-02-22T10:22:39.744Z,3.97
2023-02-22T10:25:20.143Z,4.03
2023-02-22T10:28:03.699Z,4.35
2023-02-22T10:30:36.812Z,4.40
2023-02-22T10:33:20.839Z,3.97
2023-02-22T10:35:48.877Z,3.90
2023-02-22T10:38:23.609Z,3.70
2023-02-22T10:41:10.794Z,3.95
2023-02-22T10:43:40.978Z,3.97
2023-02-22T10:46:13.854Z,3.90
2023-02-22T10:48:45.340Z,3.42
2023-02-22T10:51:16.067Z,3.40
2023-02-22T10:53:44.876Z,3.97
2023-02-22T10:56:24.675Z,3.72
2023-02-22T10:59:02.647Z,3.50
2023-02-22T11:01:33.072Z,3.47
2023-02-22T11:04:13.309Z,3.38
2023-02-22T11:06:44.649Z,3.22
2023-02-22T11:09:22.688Z,3.63
2023-02-22T11:12:11.889Z,2.50
2023-02-22T11:14:39.158Z,2.75
2023-02-22T11:17:14.025Z,2.50
2023-02-22T11:19:48.743Z,2.47
2023-02-22T11:22:24.986Z,2.17
2023-02-22T11:25:02.723Z,2.30
2023-02-22T11:27:47.093Z,2.13
2023-02-22T11:30:32.123Z,2.50
2023-02-22T11:33:03.739Z,2.22
2023-02-22T11:35:36.162Z,1.83
2023-02-22T11:38:28.381Z,2.13
2023-02-22T11:41:18.850Z,1.63
2023-02-22T11:43:51.761Z,1.50
2023-02-22T11:46:23.382Z,1.75
2023-02-22T11:49:07.101Z,1.75
2023-02-22T11:52:01.090Z,1.55
2023-02-22T11:54:43.364Z,1.83
2023-02-22T11:57:16.543Z,2.17
2023-02-22T12:00:02.565Z,2.15
2023-02-22T12:05:59.518Z,2.53
2023-02-22T12:08:42.832Z,2.20
2023-02-22T12:11:28.751Z,2.67
2023-02-22T12:14:42.011Z,2.08
2023-02-22T12:17:21.027Z,2.30
2023-02-22T12:20:01.404Z,2.20
2023-02-22T12:22:34.697Z,2.35
2023-02-22T12:25:25.248Z,2.85
2023-02-22T12:28:25.137Z,2.72
2023-02-22T12:31:16.437Z,2.03
2023-02-22T12:34:20.021Z,2.00
2023-02-22T12:36:53.851Z,1.98
2023-02-22T12:39:52.727Z,1.90
2023-02-22T12:42:58.725Z,1.95
2023-02-22T12:45:55.207Z,1.75
2023-02-22T12:49:03.498Z,1.92
2023-02-22T12:51:54.468Z,2.00
2023-02-22T12:54:39.712Z,1.60
2023-02-22T12:57:34.221Z,1.60
2023-02-22T13:00:28.839Z,1.92
2023-02-22T13:03:06.286Z,1.73
2023-02-22T13:05:39.741Z,1.58
2023-02-22T13:08:37.824Z,1.83
2023-02-22T13:11:39.515Z,2.20
2023-02-22T13:14:09.434Z,1.35
2023-02-22T13:16:52.669Z,1.58
2023-02-22T13:19:40.170Z,1.85
2023-02-22T13:22:38.659Z,2.20
2023-02-22T13:25:15.224Z,1.73
2023-02-22T13:28:08.288Z,1.80
2023-02-22T13:30:53.858Z,1.80
2023-02-22T13:34:24.646Z,1.70
2023-02-22T13:36:51.746Z,1.77
2023-02-22T13:39:56.869Z,1.85
2023-02-22T13:42:52.033Z,1.80
2023-02-22T13:46:12.893Z,1.77
2023-02-22T13:49:19.667Z,1.42
2023-02-22T13:52:06.743Z,1.38
2023-02-22T13:55:11.917Z,1.60
2023-02-22T13:57:48.704Z,1.38
2023-02-22T14:00:38.729Z,1.50
2023-02-22T14:03:15.349Z,1.60
2023-02-22T14:05:42.709Z,1.45
2023-02-22T14:08:19.041Z,1.65
2023-02-22T14:10:55.323Z,1.95
2023-02-22T14:13:32.278Z,1.80
2023-02-22T14:16:05.222Z,1.48
2023-02-22T14:19:06.447Z,2.10
2023-02-22T14:21:35.262Z,1.85
2023-02-22T14:24:16.816Z,1.73
2023-02-22T14:27:00.407Z,2.55
2023-02-22T14:29:28.049Z,1.75
2023-02-22T14:32:06.581Z,1.73
2023-02-22T14:34:54.099Z,1.90
2023-02-22T14:37:28.567Z,2.03
2023-02-22T14:40:28.620Z,2.20
2023-02-22T14:43:20.062Z,1.67
2023-02-22T14:45:57.194Z,1.92
2023-02-22T14:48:39.430Z,2.28
2023-02-22T14:51:24.575Z,2.22
2023-02-22T14:54:21.089Z,2.22
2023-02-22T14:57:24.604Z,2.20
2023-02-22T15:00:20.233Z,2.15
2023-02-22T15:02:53.315Z,2.58
2023-02-22T15:05:21.248Z,2.15
2023-02-22T15:07:58.696Z,2.47
2023-02-22T15:10:43.125Z,2.20
2023-02-22T15:13:27.469Z,2.58
2023-02-22T15:16:09.821Z,2.67
2023-02-22T15:18:48.696Z,2.63
2023-02-22T15:21:27.620Z,2.20
2023-02-22T15:24:07.743Z,2.50
2023-02-22T15:26:46.456Z,2.40
2023-02-22T15:29:32.748Z,2.60
2023-02-22T15:32:00.469Z,2.85
2023-02-22T15:34:31.960Z,2.83
2023-02-22T15:37:25.560Z,2.28
2023-02-22T15:39:59.472Z,2.55
2023-02-22T15:42:30.568Z,2.63
2023-02-22T15:45:01.273Z,2.45
2023-02-22T15:47:32.102Z,2.50
2023-02-22T15:50:27.452Z,2.78
2023-02-22T15:53:00.660Z,2.95
2023-02-22T15:55:47.605Z,2.90
2023-02-22T15:58:29.349Z,3.25
2023-02-22T16:01:05.518Z,3.15
2023-02-22T16:03:53.252Z,2.50
2023-02-22T16:06:40.734Z,3.03
2023-02-22T16:09:30.324Z,2.78
2023-02-22T16:12:27.731Z,4.13
2023-02-22T16:14:56.622Z,3.00
2023-02-22T16:17:49.544Z,3.00
2023-02-22T16:20:29.491Z,3.13
2023-02-22T16:22:58.542Z,3.60
2023-02-22T16:25:35.831Z,4.45
2023-02-22T16:28:31.313Z,4.63
2023-02-22T16:31:03.714Z,3.95
2023-02-22T16:33:34.295Z,3.72
2023-02-22T16:36:08.383Z,4.07
2023-02-22T16:38:38.509Z,3.92
2023-02-22T16:41:07.727Z,4.93
2023-02-22T16:43:36.500Z,4.40
2023-02-22T16:46:07.210Z,4.13
2023-02-22T16:48:40.602Z,4.68
2023-02-22T16:51:24.340Z,4.30
2023-02-22T16:53:54.932Z,4.82
2023-02-22T16:56:33.281Z,5.07
2023-02-22T16:59:09.779Z,6.90
2023-02-22T17:01:41.274Z,6.95
2023-02-22T17:04:20.081Z,8.32
2023-02-22T17:06:48.878Z,8.52
2023-02-22T17:09:17.372Z,8.15
2023-02-22T17:11:51.985Z,7.97
2023-02-22T17:14:23.648Z,8.38
2023-02-22T17:16:54.545Z,7.35
2023-02-22T17:19:27.368Z,6.78
2023-02-22T17:21:55.243Z,6.57
2023-02-22T17:24:24.985Z,7.18
2023-02-22T17:26:56.616Z,6.47
2023-02-22T17:29:27.450Z,7.10
2023-02-22T17:31:55.380Z,8.30
2023-02-22T17:34:23.275Z,7.97
2023-02-22T17:36:50.661Z,8.45
2023-02-22T17:39:20.383Z,8.30
2023-02-22T17:41:55.918Z,10.18
2023-02-22T17:44:27.120Z,8.27
2023-02-22T17:46:56.188Z,8.90
2023-02-22T17:49:24.162Z,8.65
2023-02-22T17:51:59.194Z,8.50
2023-02-22T17:54:30.719Z,8.27
2023-02-22T17:56:58.654Z,7.78
2023-02-22T17:59:27.655Z,8.00
2023-02-22T18:01:55.570Z,7.80
2023-02-22T18:04:23.839Z,7.93
2023-02-22T18:06:52.852Z,7.18
2023-02-22T18:09:20.547Z,8.13
2023-02-22T18:11:48.894Z,7.65
2023-02-22T18:14:17.196Z,8.57
2023-02-22T18:16:47.000Z,8.35
2023-02-22T18:19:21.519Z,9.48
2023-02-22T18:21:52.979Z,8.73
2023-02-22T18:24:28.365Z,9.68
2023-02-22T18:26:57.156Z,8.88
2023-02-22T18:29:26.829Z,9.00
2023-02-22T18:31:56.874Z,8.60
2023-02-22T18:34:25.614Z,8.43
2023-02-22T18:36:55.523Z,9.30
2023-02-22T18:39:24.066Z,8.52
2023-02-22T18:41:53.548Z,9.90
2023-02-22T18:44:24.084Z,9.88
2023-02-22T18:46:54.105Z,9.82
2023-02-22T18:49:28.652Z,9.57
2023-02-22T18:51:57.437Z,10.85
2023-02-22T18:54:25.627Z,10.00
2023-02-22T18:56:57.228Z,10.73
2023-02-22T18:59:25.656Z,9.68
2023-02-22T19:01:55.084Z,10.68
2023-02-22T19:04:25.208Z,10.50
2023-02-22T19:06:55.778Z,11.75
2023-02-22T19:09:26.553Z,13.95
2023-02-22T19:11:55.174Z,19.88
2023-02-22T19:14:25.088Z,26.27
2023-02-22T19:16:56.998Z,32.33
2023-02-22T19:19:44.856Z,39.40
2023-02-22T19:22:15.326Z,47.13
2023-02-22T19:24:45.967Z,53.45
2023-02-22T19:27:15.423Z,47.60
2023-02-22T19:29:45.056Z,44.00
2023-02-22T19:32:14.012Z,38.15
2023-02-22T19:34:48.394Z,32.67
2023-02-22T19:37:22.309Z,25.95
2023-02-22T19:39:50.594Z,20.40
2023-02-22T19:42:26.057Z,17.58
2023-02-22T19:44:56.558Z,17.40
2023-02-22T19:47:25.341Z,16.25
2023-02-22T19:49:54.050Z,15.48
2023-02-22T19:52:22.502Z,13.50
2023-02-22T19:54:52.091Z,14.15
2023-02-22T19:57:24.925Z,14.15
2023-02-22T19:59:55.354Z,13.40
2023-02-22T20:02:28.035Z,13.13
2023-02-22T20:04:56.316Z,13.38
2023-02-22T20:07:28.175Z,13.50
2023-02-22T20:09:57.341Z,14.88
2023-02-22T20:12:25.643Z,13.55
2023-02-22T20:14:54.644Z,12.80
2023-02-22T20:17:28.235Z,12.93
2023-02-22T20:19:59.554Z,13.27
2023-02-22T20:22:28.698Z,13.48
2023-02-22T20:24:58.905Z,13.25
2023-02-22T20:27:28.003Z,13.02
2023-02-22T20:30:01.496Z,13.65
2023-02-22T20:32:32.437Z,12.85
2023-02-22T20:35:01.914Z,12.93
2023-02-22T20:37:32.872Z,13.30
2023-02-22T20:40:07.220Z,12.85
2023-02-22T20:42:37.090Z,12.82
2023-02-22T20:45:08.204Z,12.20
2023-02-22T20:47:36.794Z,12.23
2023-02-22T20:50:06.220Z,12.48
2023-02-22T20:52:34.187Z,11.98
2023-02-22T20:55:06.412Z,12.45
2023-02-22T20:57:34.773Z,12.85
2023-02-22T21:00:03.307Z,12.75
2023-02-22T21:02:31.775Z,13.15
2023-02-22T21:05:00.228Z,11.68
2023-02-22T21:07:27.893Z,12.43
2023-02-22T21:09:55.898Z,13.00
2023-02-22T21:12:24.609Z,13.27
2023-02-22T21:14:53.210Z,12.75
2023-02-22T21:17:29.283Z,13.75
2023-02-22T21:19:59.356Z,13.18
2023-02-22T21:22:28.218Z,12.82
2023-02-22T21:24:56.876Z,12.57
2023-02-22T21:27:25.088Z,13.20
2023-02-22T21:29:53.418Z,12.80
2023-02-22T21:32:21.369Z,12.75
2023-02-22T21:34:50.317Z,12.07
2023-02-22T21:37:19.012Z,13.80
2023-02-22T21:39:50.229Z,13.05
2023-02-22T21:42:18.334Z,12.40
2023-02-22T21:44:50.133Z,13.73
2023-02-22T21:47:17.848Z,12.55
2023-02-22T21:49:45.266Z,13.30
2023-02-22T21:52:12.602Z,13.50
2023-02-22T21:54:39.944Z,12.80
2023-02-22T21:57:07.480Z,13.40
2023-02-22T21:59:34.985Z,11.65
2023-02-22T22:02:02.202Z,12.25
2023-02-22T22:04:32.255Z,12.00
2023-02-22T22:07:01.816Z,12.80
2023-02-22T22:09:33.256Z,13.50
2023-02-22T22:12:05.287Z,12.93
2023-02-22T22:14:34.733Z,13.15
2023-02-22T22:17:05.574Z,13.63
2023-02-22T22:19:41.757Z,14.20
2023-02-22T22:22:09.138Z,12.65
2023-02-22T22:24:37.116Z,13.80
2023-02-22T22:27:12.874Z,12.70
2023-02-22T22:29:40.480Z,13.60
2023-02-22T22:32:07.752Z,13.38
2023-02-22T22:34:37.875Z,13.20
2023-02-22T22:37:08.766Z,13.35
2023-02-22T22:39:35.990Z,13.32
2023-02-22T22:42:03.245Z,12.60
2023-02-22T22:44:33.075Z,13.40
2023-02-22T22:47:05.987Z,12.73
2023-02-22T22:49:40.380Z,12.73
2023-02-22T22:52:08.396Z,12.45
2023-02-22T22:54:36.165Z,11.95
2023-02-22T22:57:04.089Z,12.48
2023-02-22T22:59:31.854Z,11.93
2023-02-22T23:01:59.425Z,12.10
2023-02-22T23:04:32.821Z,12.32
2023-02-22T23:07:05.253Z,12.23
2023-02-22T23:09:34.950Z,12.40
2023-02-22T23:12:16.765Z,11.95
2023-02-22T23:14:45.397Z,11.68
2023-02-22T23:17:26.892Z,12.20
2023-02-22T23:19:54.218Z,11.75
2023-02-22T23:22:24.139Z,12.25
2023-02-22T23:24:51.234Z,11.88
2023-02-22T23:27:19.038Z,11.35
2023-02-22T23:29:46.831Z,12.82
2023-02-22T23:32:17.457Z,11.43
2023-02-22T23:34:44.602Z,13.30
2023-02-22T23:37:14.096Z,12.38
2023-02-22T23:39:41.639Z,12.75
2023-02-22T23:42:09.139Z,13.23
2023-02-22T23:44:36.467Z,12.35
2023-02-22T23:47:04.504Z,12.70
2023-02-22T23:49:38.489Z,12.65
2023-02-22T23:52:07.392Z,11.70
2023-02-22T23:54:40.236Z,12.20
2023-02-22T23:57:11.036Z,12.02
2023-02-22T23:59:41.348Z,11.35
